sensor_id;sensor_type;location;lat;lon;timestamp;temperature;humidity
74792;SHT30;63319;46.046;17.802;2024-03-06T00:01:17;11.29;67.31
74792;SHT30;63319;46.046;17.802;2024-03-06T00:04:20;11.40;68.35
74792;SHT30;63319;46.046;17.802;2024-03-06T00:07:23;11.57;66.90
74792;SHT30;63319;46.046;17.802;2024-03-06T00:10:26;11.53;67.09
74792;SHT30;63319;46.046;17.802;2024-03-06T00:13:29;11.57;68.15
74792;SHT30;63319;46.046;17.802;2024-03-06T00:16:32;11.54;68.34
74792;SHT30;63319;46.046;17.802;2024-03-06T00:19:35;11.20;68.55
74792;SHT30;63319;46.046;17.802;2024-03-06T00:22:38;11.04;69.71
74792;SHT30;63319;46.046;17.802;2024-03-06T00:25:41;11.14;69.01
74792;SHT30;63319;46.046;17.802;2024-03-06T00:28:44;11.20;68.55
74792;SHT30;63319;46.046;17.802;2024-03-06T00:31:47;10.98;69.87
74792;SHT30;63319;46.046;17.802;2024-03-06T00:34:51;11.08;68.93
74792;SHT30;63319;46.046;17.802;2024-03-06T00:37:54;10.02;72.30
74792;SHT30;63319;46.046;17.802;2024-03-06T00:40:57;10.36;71.94
74792;SHT30;63319;46.046;17.802;2024-03-06T00:44:00;10.51;71.83
74792;SHT30;63319;46.046;17.802;2024-03-06T00:47:04;10.44;71.49
74792;SHT30;63319;46.046;17.802;2024-03-06T00:50:08;10.40;71.46
74792;SHT30;63319;46.046;17.802;2024-03-06T00:53:11;10.47;72.42
74792;SHT30;63319;46.046;17.802;2024-03-06T00:56:14;9.93;73.35
74792;SHT30;63319;46.046;17.802;2024-03-06T00:59:18;9.30;73.82
74792;SHT30;63319;46.046;17.802;2024-03-06T01:02:21;9.93;74.17
74792;SHT30;63319;46.046;17.802;2024-03-06T01:05:24;9.71;73.86
74792;SHT30;63319;46.046;17.802;2024-03-06T01:08:27;9.27;74.47
74792;SHT30;63319;46.046;17.802;2024-03-06T01:11:30;9.03;75.64
74792;SHT30;63319;46.046;17.802;2024-03-06T01:14:34;8.96;77.38
74792;SHT30;63319;46.046;17.802;2024-03-06T01:17:41;8.73;76.68
74792;SHT30;63319;46.046;17.802;2024-03-06T01:20:44;9.24;76.17
74792;SHT30;63319;46.046;17.802;2024-03-06T01:23:47;9.33;76.14
74792;SHT30;63319;46.046;17.802;2024-03-06T01:26:50;9.44;75.79
74792;SHT30;63319;46.046;17.802;2024-03-06T01:29:53;9.67;73.52
74792;SHT30;63319;46.046;17.802;2024-03-06T01:32:56;9.35;75.21
74792;SHT30;63319;46.046;17.802;2024-03-06T01:35:59;8.96;76.22
74792;SHT30;63319;46.046;17.802;2024-03-06T01:39:02;9.34;76.33
74792;SHT30;63319;46.046;17.802;2024-03-06T01:42:05;9.55;74.78
74792;SHT30;63319;46.046;17.802;2024-03-06T01:45:08;9.67;75.01
74792;SHT30;63319;46.046;17.802;2024-03-06T01:48:12;9.58;74.84
74792;SHT30;63319;46.046;17.802;2024-03-06T01:51:15;8.80;76.22
74792;SHT30;63319;46.046;17.802;2024-03-06T01:54:18;8.97;75.64
74792;SHT30;63319;46.046;17.802;2024-03-06T01:57:22;8.72;76.25
74792;SHT30;63319;46.046;17.802;2024-03-06T02:00:25;8.54;76.84
74792;SHT30;63319;46.046;17.802;2024-03-06T02:03:29;9.03;76.16
74792;SHT30;63319;46.046;17.802;2024-03-06T02:06:32;9.67;74.82
74792;SHT30;63319;46.046;17.802;2024-03-06T02:09:35;9.72;73.51
74792;SHT30;63319;46.046;17.802;2024-03-06T02:12:38;8.87;75.80
74792;SHT30;63319;46.046;17.802;2024-03-06T02:15:41;8.85;76.14
74792;SHT30;63319;46.046;17.802;2024-03-06T02:18:54;8.51;76.95
74792;SHT30;63319;46.046;17.802;2024-03-06T02:21:57;8.56;76.95
74792;SHT30;63319;46.046;17.802;2024-03-06T02:25:00;8.66;78.16
74792;SHT30;63319;46.046;17.802;2024-03-06T02:28:04;8.62;76.92
74792;SHT30;63319;46.046;17.802;2024-03-06T02:31:09;8.64;76.83
74792;SHT30;63319;46.046;17.802;2024-03-06T02:34:12;9.37;75.83
74792;SHT30;63319;46.046;17.802;2024-03-06T02:37:15;8.79;77.17
74792;SHT30;63319;46.046;17.802;2024-03-06T02:40:18;8.68;77.25
74792;SHT30;63319;46.046;17.802;2024-03-06T02:43:21;8.92;77.35
74792;SHT30;63319;46.046;17.802;2024-03-06T02:46:24;8.66;77.38
74792;SHT30;63319;46.046;17.802;2024-03-06T02:49:27;8.16;78.44
74792;SHT30;63319;46.046;17.802;2024-03-06T02:52:30;8.64;77.70
74792;SHT30;63319;46.046;17.802;2024-03-06T02:55:32;8.54;78.43
74792;SHT30;63319;46.046;17.802;2024-03-06T02:58:36;8.85;76.78
74792;SHT30;63319;46.046;17.802;2024-03-06T03:01:39;8.80;76.92
74792;SHT30;63319;46.046;17.802;2024-03-06T03:04:42;9.00;76.09
74792;SHT30;63319;46.046;17.802;2024-03-06T03:07:45;9.27;76.00
74792;SHT30;63319;46.046;17.802;2024-03-06T03:10:48;8.89;77.38
74792;SHT30;63319;46.046;17.802;2024-03-06T03:13:51;9.16;75.68
74792;SHT30;63319;46.046;17.802;2024-03-06T03:16:54;8.82;76.65
74792;SHT30;63319;46.046;17.802;2024-03-06T03:19:57;8.71;76.29
74792;SHT30;63319;46.046;17.802;2024-03-06T03:23:01;8.38;78.45
74792;SHT30;63319;46.046;17.802;2024-03-06T03:26:04;8.20;79.11
74792;SHT30;63319;46.046;17.802;2024-03-06T03:29:07;7.98;79.72
74792;SHT30;63319;46.046;17.802;2024-03-06T03:32:10;8.37;78.25
74792;SHT30;63319;46.046;17.802;2024-03-06T03:35:13;9.02;76.76
74792;SHT30;63319;46.046;17.802;2024-03-06T03:38:17;9.14;76.70
74792;SHT30;63319;46.046;17.802;2024-03-06T03:41:20;9.34;74.96
74792;SHT30;63319;46.046;17.802;2024-03-06T03:44:23;9.28;76.14
74792;SHT30;63319;46.046;17.802;2024-03-06T03:47:26;9.03;77.11
74792;SHT30;63319;46.046;17.802;2024-03-06T03:50:31;8.62;77.61
74792;SHT30;63319;46.046;17.802;2024-03-06T03:53:36;8.55;78.86
74792;SHT30;63319;46.046;17.802;2024-03-06T03:56:39;8.65;78.79
74792;SHT30;63319;46.046;17.802;2024-03-06T03:59:43;9.02;76.27
74792;SHT30;63319;46.046;17.802;2024-03-06T04:02:46;9.07;76.24
74792;SHT30;63319;46.046;17.802;2024-03-06T04:05:49;9.03;75.99
74792;SHT30;63319;46.046;17.802;2024-03-06T04:08:52;8.92;76.56
74792;SHT30;63319;46.046;17.802;2024-03-06T04:11:55;9.10;75.82
74792;SHT30;63319;46.046;17.802;2024-03-06T04:14:58;8.06;78.57
74792;SHT30;63319;46.046;17.802;2024-03-06T04:18:01;7.89;81.03
74792;SHT30;63319;46.046;17.802;2024-03-06T04:21:05;8.25;79.91
74792;SHT30;63319;46.046;17.802;2024-03-06T04:24:08;8.83;77.18
74792;SHT30;63319;46.046;17.802;2024-03-06T04:27:11;8.73;77.29
74792;SHT30;63319;46.046;17.802;2024-03-06T04:30:14;7.85;79.24
74792;SHT30;63319;46.046;17.802;2024-03-06T04:33:17;7.44;81.32
74792;SHT30;63319;46.046;17.802;2024-03-06T04:36:20;7.11;82.43
74792;SHT30;63319;46.046;17.802;2024-03-06T04:39:23;6.94;83.18
74792;SHT30;63319;46.046;17.802;2024-03-06T04:42:26;7.79;81.37
74792;SHT30;63319;46.046;17.802;2024-03-06T04:45:29;8.18;79.22
74792;SHT30;63319;46.046;17.802;2024-03-06T04:48:32;8.31;78.95
74792;SHT30;63319;46.046;17.802;2024-03-06T04:51:34;8.61;77.62
74792;SHT30;63319;46.046;17.802;2024-03-06T04:54:38;8.66;77.55
74792;SHT30;63319;46.046;17.802;2024-03-06T04:57:43;8.28;78.12
74792;SHT30;63319;46.046;17.802;2024-03-06T05:00:46;8.30;78.32
74792;SHT30;63319;46.046;17.802;2024-03-06T05:03:49;7.80;79.52
74792;SHT30;63319;46.046;17.802;2024-03-06T05:07:09;8.07;78.69
74792;SHT30;63319;46.046;17.802;2024-03-06T05:10:29;7.66;81.13
74792;SHT30;63319;46.046;17.802;2024-03-06T05:13:49;7.83;80.77
74792;SHT30;63319;46.046;17.802;2024-03-06T05:17:09;7.63;79.75
74792;SHT30;63319;46.046;17.802;2024-03-06T05:20:30;7.51;80.17
74792;SHT30;63319;46.046;17.802;2024-03-06T05:23:53;7.45;80.56
74792;SHT30;63319;46.046;17.802;2024-03-06T05:27:14;7.48;81.17
74792;SHT30;63319;46.046;17.802;2024-03-06T05:30:36;7.85;78.82
74792;SHT30;63319;46.046;17.802;2024-03-06T05:33:56;7.59;80.15
74792;SHT30;63319;46.046;17.802;2024-03-06T05:37:16;7.82;80.10
74792;SHT30;63319;46.046;17.802;2024-03-06T05:40:37;7.83;79.46
74792;SHT30;63319;46.046;17.802;2024-03-06T05:44:00;7.96;78.61
74792;SHT30;63319;46.046;17.802;2024-03-06T05:47:20;7.75;79.04
74792;SHT30;63319;46.046;17.802;2024-03-06T05:50:40;7.54;80.09
74792;SHT30;63319;46.046;17.802;2024-03-06T05:54:00;7.62;80.23
74792;SHT30;63319;46.046;17.802;2024-03-06T05:57:20;7.82;79.29
74792;SHT30;63319;46.046;17.802;2024-03-06T06:00:40;7.63;79.60
74792;SHT30;63319;46.046;17.802;2024-03-06T06:03:44;7.54;80.06
74792;SHT30;63319;46.046;17.802;2024-03-06T06:06:47;7.79;79.48
74792;SHT30;63319;46.046;17.802;2024-03-06T06:09:50;7.49;79.90
74792;SHT30;63319;46.046;17.802;2024-03-06T06:12:53;7.76;79.79
74792;SHT30;63319;46.046;17.802;2024-03-06T06:16:00;7.72;79.13
74792;SHT30;63319;46.046;17.802;2024-03-06T06:19:05;7.91;78.76
74792;SHT30;63319;46.046;17.802;2024-03-06T06:22:09;7.93;79.18
74792;SHT30;63319;46.046;17.802;2024-03-06T06:25:15;7.85;78.92
74792;SHT30;63319;46.046;17.802;2024-03-06T06:28:19;7.58;79.63
74792;SHT30;63319;46.046;17.802;2024-03-06T06:31:22;7.61;79.91
74792;SHT30;63319;46.046;17.802;2024-03-06T06:34:25;7.55;79.99
74792;SHT30;63319;46.046;17.802;2024-03-06T06:37:30;7.54;80.31
74792;SHT30;63319;46.046;17.802;2024-03-06T06:40:33;7.65;80.08
74792;SHT30;63319;46.046;17.802;2024-03-06T06:43:36;7.93;79.04
74792;SHT30;63319;46.046;17.802;2024-03-06T06:46:39;8.04;79.01
74792;SHT30;63319;46.046;17.802;2024-03-06T06:49:43;8.23;78.14
74792;SHT30;63319;46.046;17.802;2024-03-06T06:52:47;9.02;75.49
74792;SHT30;63319;46.046;17.802;2024-03-06T06:55:50;10.94;69.13
74792;SHT30;63319;46.046;17.802;2024-03-06T06:58:54;11.73;66.23
74792;SHT30;63319;46.046;17.802;2024-03-06T07:01:57;13.07;62.33
74792;SHT30;63319;46.046;17.802;2024-03-06T07:05:00;13.62;60.46
74792;SHT30;63319;46.046;17.802;2024-03-06T07:08:03;14.49;58.34
74792;SHT30;63319;46.046;17.802;2024-03-06T07:11:06;14.48;57.55
74792;SHT30;63319;46.046;17.802;2024-03-06T07:14:09;14.79;56.80
74792;SHT30;63319;46.046;17.802;2024-03-06T07:17:12;14.79;57.20
74792;SHT30;63319;46.046;17.802;2024-03-06T07:20:15;16.16;53.53
74792;SHT30;63319;46.046;17.802;2024-03-06T07:23:18;16.13;52.83
74792;SHT30;63319;46.046;17.802;2024-03-06T07:26:21;17.39;49.79
74792;SHT30;63319;46.046;17.802;2024-03-06T07:29:24;16.53;52.42
74792;SHT30;63319;46.046;17.802;2024-03-06T07:32:27;16.89;51.56
74792;SHT30;63319;46.046;17.802;2024-03-06T07:35:31;17.47;49.51
74792;SHT30;63319;46.046;17.802;2024-03-06T07:38:34;16.68;52.61
74792;SHT30;63319;46.046;17.802;2024-03-06T07:41:37;18.77;47.39
74792;SHT30;63319;46.046;17.802;2024-03-06T07:44:40;19.35;45.87
74792;SHT30;63319;46.046;17.802;2024-03-06T07:47:43;18.27;47.99
74792;SHT30;63319;46.046;17.802;2024-03-06T07:50:48;18.85;47.54
74792;SHT30;63319;46.046;17.802;2024-03-06T07:53:51;20.30;45.44
74792;SHT30;63319;46.046;17.802;2024-03-06T07:56:55;20.26;43.79
74792;SHT30;63319;46.046;17.802;2024-03-06T07:59:58;19.92;44.88
74792;SHT30;63319;46.046;17.802;2024-03-06T08:03:01;20.88;41.86
74792;SHT30;63319;46.046;17.802;2024-03-06T08:06:05;19.41;45.16
74792;SHT30;63319;46.046;17.802;2024-03-06T08:09:08;20.26;43.53
74792;SHT30;63319;46.046;17.802;2024-03-06T08:12:12;19.99;46.13
74792;SHT30;63319;46.046;17.802;2024-03-06T08:15:15;20.99;42.79
74792;SHT30;63319;46.046;17.802;2024-03-06T08:18:18;19.94;44.88
74792;SHT30;63319;46.046;17.802;2024-03-06T08:21:20;20.16;44.23
74792;SHT30;63319;46.046;17.802;2024-03-06T08:24:25;18.58;48.66
74792;SHT30;63319;46.046;17.802;2024-03-06T08:27:28;19.45;46.94
74792;SHT30;63319;46.046;17.802;2024-03-06T08:30:31;19.44;45.22
74792;SHT30;63319;46.046;17.802;2024-03-06T08:33:35;20.69;43.31
74792;SHT30;63319;46.046;17.802;2024-03-06T08:36:38;20.61;43.11
74792;SHT30;63319;46.046;17.802;2024-03-06T08:39:40;20.63;41.44
74792;SHT30;63319;46.046;17.802;2024-03-06T08:42:44;21.50;41.70
74792;SHT30;63319;46.046;17.802;2024-03-06T08:45:47;21.36;41.14
74792;SHT30;63319;46.046;17.802;2024-03-06T08:48:52;21.19;41.66
74792;SHT30;63319;46.046;17.802;2024-03-06T08:51:55;21.33;41.96
74792;SHT30;63319;46.046;17.802;2024-03-06T08:55:00;21.65;42.06
74792;SHT30;63319;46.046;17.802;2024-03-06T08:58:03;24.33;36.16
74792;SHT30;63319;46.046;17.802;2024-03-06T09:01:06;22.77;38.28
74792;SHT30;63319;46.046;17.802;2024-03-06T09:04:09;22.74;39.09
74792;SHT30;63319;46.046;17.802;2024-03-06T09:07:13;21.95;39.38
74792;SHT30;63319;46.046;17.802;2024-03-06T09:10:15;20.52;42.35
74792;SHT30;63319;46.046;17.802;2024-03-06T09:13:19;22.31;39.63
74792;SHT30;63319;46.046;17.802;2024-03-06T09:16:22;20.82;41.32
74792;SHT30;63319;46.046;17.802;2024-03-06T09:19:26;21.56;40.51
74792;SHT30;63319;46.046;17.802;2024-03-06T09:22:29;22.96;39.15
74792;SHT30;63319;46.046;17.802;2024-03-06T09:25:32;23.70;37.41
74792;SHT30;63319;46.046;17.802;2024-03-06T09:28:34;23.25;36.75
74792;SHT30;63319;46.046;17.802;2024-03-06T09:31:37;20.74;41.10
74792;SHT30;63319;46.046;17.802;2024-03-06T09:34:41;21.03;41.52
74792;SHT30;63319;46.046;17.802;2024-03-06T09:37:44;19.75;43.18
74792;SHT30;63319;46.046;17.802;2024-03-06T09:40:49;19.96;43.58
74792;SHT30;63319;46.046;17.802;2024-03-06T09:43:52;18.10;48.65
74792;SHT30;63319;46.046;17.802;2024-03-06T09:46:59;18.58;47.07
74792;SHT30;63319;46.046;17.802;2024-03-06T09:50:02;20.68;41.24
74792;SHT30;63319;46.046;17.802;2024-03-06T09:53:06;20.78;41.35
74792;SHT30;63319;46.046;17.802;2024-03-06T09:56:10;21.05;43.13
74792;SHT30;63319;46.046;17.802;2024-03-06T09:59:14;19.76;44.56
74792;SHT30;63319;46.046;17.802;2024-03-06T10:02:41;20.87;43.27
74792;SHT30;63319;46.046;17.802;2024-03-06T10:05:49;20.89;40.76
74792;SHT30;63319;46.046;17.802;2024-03-06T10:08:52;20.99;42.06
74792;SHT30;63319;46.046;17.802;2024-03-06T10:11:55;21.53;40.51
74792;SHT30;63319;46.046;17.802;2024-03-06T10:15:05;21.44;38.92
74792;SHT30;63319;46.046;17.802;2024-03-06T10:18:13;21.75;40.93
74792;SHT30;63319;46.046;17.802;2024-03-06T10:21:32;21.42;41.48
74792;SHT30;63319;46.046;17.802;2024-03-06T10:24:34;23.69;39.20
74792;SHT30;63319;46.046;17.802;2024-03-06T10:27:37;22.12;38.81
74792;SHT30;63319;46.046;17.802;2024-03-06T10:30:41;23.01;38.44
74792;SHT30;63319;46.046;17.802;2024-03-06T10:33:46;24.33;37.29
74792;SHT30;63319;46.046;17.802;2024-03-06T10:37:00;24.64;36.94
74792;SHT30;63319;46.046;17.802;2024-03-06T10:40:04;24.16;34.62
74792;SHT30;63319;46.046;17.802;2024-03-06T10:43:09;22.15;39.89
74792;SHT30;63319;46.046;17.802;2024-03-06T10:46:14;24.48;35.62
74792;SHT30;63319;46.046;17.802;2024-03-06T10:49:17;21.95;39.28
74792;SHT30;63319;46.046;17.802;2024-03-06T10:52:21;19.78;42.47
74792;SHT30;63319;46.046;17.802;2024-03-06T10:55:25;19.76;42.86
74792;SHT30;63319;46.046;17.802;2024-03-06T10:58:31;19.42;44.31
74792;SHT30;63319;46.046;17.802;2024-03-06T11:01:35;20.10;42.88
74792;SHT30;63319;46.046;17.802;2024-03-06T11:04:39;23.39;38.12
74792;SHT30;63319;46.046;17.802;2024-03-06T11:07:43;22.90;39.47
74792;SHT30;63319;46.046;17.802;2024-03-06T11:10:46;25.03;35.19
74792;SHT30;63319;46.046;17.802;2024-03-06T11:13:49;22.69;37.86
74792;SHT30;63319;46.046;17.802;2024-03-06T11:16:57;24.57;37.68
74792;SHT30;63319;46.046;17.802;2024-03-06T11:23:12;21.12;40.02
74792;SHT30;63319;46.046;17.802;2024-03-06T11:26:16;20.24;42.20
74792;SHT30;63319;46.046;17.802;2024-03-06T11:29:19;21.10;39.33
74792;SHT30;63319;46.046;17.802;2024-03-06T11:32:23;19.85;45.67
74792;SHT30;63319;46.046;17.802;2024-03-06T11:35:29;22.96;37.53
74792;SHT30;63319;46.046;17.802;2024-03-06T11:38:32;21.98;40.52
74792;SHT30;63319;46.046;17.802;2024-03-06T11:44:54;21.58;40.90
74792;SHT30;63319;46.046;17.802;2024-03-06T11:48:02;20.79;43.71
74792;SHT30;63319;46.046;17.802;2024-03-06T11:51:06;21.44;40.63
74792;SHT30;63319;46.046;17.802;2024-03-06T11:54:09;20.24;42.23
74792;SHT30;63319;46.046;17.802;2024-03-06T11:57:13;19.04;45.79
74792;SHT30;63319;46.046;17.802;2024-03-06T12:00:21;19.73;44.80
74792;SHT30;63319;46.046;17.802;2024-03-06T12:03:25;20.54;43.34
74792;SHT30;63319;46.046;17.802;2024-03-06T12:06:29;19.39;45.87
74792;SHT30;63319;46.046;17.802;2024-03-06T12:09:37;19.86;45.11
74792;SHT30;63319;46.046;17.802;2024-03-06T12:12:45;19.93;44.18
74792;SHT30;63319;46.046;17.802;2024-03-06T12:15:47;23.55;37.20
74792;SHT30;63319;46.046;17.802;2024-03-06T12:18:57;21.36;43.24
74792;SHT30;63319;46.046;17.802;2024-03-06T12:22:02;20.51;43.66
74792;SHT30;63319;46.046;17.802;2024-03-06T12:25:07;20.48;42.91
74792;SHT30;63319;46.046;17.802;2024-03-06T12:28:10;21.73;41.10
74792;SHT30;63319;46.046;17.802;2024-03-06T12:31:13;20.94;41.77
74792;SHT30;63319;46.046;17.802;2024-03-06T12:34:16;19.73;44.47
74792;SHT30;63319;46.046;17.802;2024-03-06T12:37:20;22.71;39.39
74792;SHT30;63319;46.046;17.802;2024-03-06T12:40:31;23.79;37.28
74792;SHT30;63319;46.046;17.802;2024-03-06T12:43:34;23.22;37.53
74792;SHT30;63319;46.046;17.802;2024-03-06T12:46:37;22.18;39.00
74792;SHT30;63319;46.046;17.802;2024-03-06T12:49:40;22.08;39.67
74792;SHT30;63319;46.046;17.802;2024-03-06T12:52:43;21.42;40.52
74792;SHT30;63319;46.046;17.802;2024-03-06T12:55:48;21.85;40.28
74792;SHT30;63319;46.046;17.802;2024-03-06T12:58:52;21.50;39.28
74792;SHT30;63319;46.046;17.802;2024-03-06T13:01:55;24.34;35.63
74792;SHT30;63319;46.046;17.802;2024-03-06T13:04:58;24.93;34.86
74792;SHT30;63319;46.046;17.802;2024-03-06T13:08:02;25.99;33.26
74792;SHT30;63319;46.046;17.802;2024-03-06T13:11:05;24.71;34.91
74792;SHT30;63319;46.046;17.802;2024-03-06T13:14:08;22.36;38.71
74792;SHT30;63319;46.046;17.802;2024-03-06T13:17:15;24.12;36.48
74792;SHT30;63319;46.046;17.802;2024-03-06T13:20:18;24.35;35.33
74792;SHT30;63319;46.046;17.802;2024-03-06T13:23:21;24.99;34.86
74792;SHT30;63319;46.046;17.802;2024-03-06T13:26:25;23.82;35.87
74792;SHT30;63319;46.046;17.802;2024-03-06T13:29:28;23.75;36.37
74792;SHT30;63319;46.046;17.802;2024-03-06T13:32:32;24.99;34.14
74792;SHT30;63319;46.046;17.802;2024-03-06T13:35:35;23.93;36.31
74792;SHT30;63319;46.046;17.802;2024-03-06T13:38:38;22.94;37.55
74792;SHT30;63319;46.046;17.802;2024-03-06T13:41:42;23.59;37.24
74792;SHT30;63319;46.046;17.802;2024-03-06T13:44:45;22.12;38.48
74792;SHT30;63319;46.046;17.802;2024-03-06T13:47:48;24.16;35.54
74792;SHT30;63319;46.046;17.802;2024-03-06T13:50:52;24.89;34.08
74792;SHT30;63319;46.046;17.802;2024-03-06T13:53:55;24.78;34.28
74792;SHT30;63319;46.046;17.802;2024-03-06T13:56:58;25.77;32.04
74792;SHT30;63319;46.046;17.802;2024-03-06T14:00:06;24.76;32.53
74792;SHT30;63319;46.046;17.802;2024-03-06T14:03:15;23.51;35.49
74792;SHT30;63319;46.046;17.802;2024-03-06T14:06:18;23.42;35.72
74792;SHT30;63319;46.046;17.802;2024-03-06T14:09:21;23.31;35.89
74792;SHT30;63319;46.046;17.802;2024-03-06T14:12:27;22.28;37.70
74792;SHT30;63319;46.046;17.802;2024-03-06T14:15:30;21.80;38.49
74792;SHT30;63319;46.046;17.802;2024-03-06T14:18:33;22.33;39.34
74792;SHT30;63319;46.046;17.802;2024-03-06T14:21:37;21.90;37.30
74792;SHT30;63319;46.046;17.802;2024-03-06T14:24:40;20.65;43.04
74792;SHT30;63319;46.046;17.802;2024-03-06T14:27:45;20.91;40.23
74792;SHT30;63319;46.046;17.802;2024-03-06T14:30:48;21.02;41.40
74792;SHT30;63319;46.046;17.802;2024-03-06T14:33:51;20.37;41.44
74792;SHT30;63319;46.046;17.802;2024-03-06T14:36:54;21.12;39.42
74792;SHT30;63319;46.046;17.802;2024-03-06T14:39:57;20.00;41.81
74792;SHT30;63319;46.046;17.802;2024-03-06T14:43:03;20.54;43.36
74792;SHT30;63319;46.046;17.802;2024-03-06T14:46:11;20.33;39.58
74792;SHT30;63319;46.046;17.802;2024-03-06T14:49:15;19.78;41.26
74792;SHT30;63319;46.046;17.802;2024-03-06T14:52:18;19.44;41.23
74792;SHT30;63319;46.046;17.802;2024-03-06T14:55:21;20.14;40.66
74792;SHT30;63319;46.046;17.802;2024-03-06T14:58:24;19.28;43.24
74792;SHT30;63319;46.046;17.802;2024-03-06T15:01:27;18.82;43.82
74792;SHT30;63319;46.046;17.802;2024-03-06T15:04:31;18.18;44.39
74792;SHT30;63319;46.046;17.802;2024-03-06T15:07:34;18.05;44.49
74792;SHT30;63319;46.046;17.802;2024-03-06T15:10:37;17.60;45.66
74792;SHT30;63319;46.046;17.802;2024-03-06T15:13:40;17.65;45.89
74792;SHT30;63319;46.046;17.802;2024-03-06T15:16:43;17.39;46.84
74792;SHT30;63319;46.046;17.802;2024-03-06T15:19:47;17.28;46.97
74792;SHT30;63319;46.046;17.802;2024-03-06T15:22:51;17.07;47.12
74792;SHT30;63319;46.046;17.802;2024-03-06T15:25:55;17.10;47.22
74792;SHT30;63319;46.046;17.802;2024-03-06T15:28:58;16.65;48.49
74792;SHT30;63319;46.046;17.802;2024-03-06T15:32:03;16.54;48.87
74792;SHT30;63319;46.046;17.802;2024-03-06T15:35:06;16.30;49.32
74792;SHT30;63319;46.046;17.802;2024-03-06T15:38:11;16.09;50.12
74792;SHT30;63319;46.046;17.802;2024-03-06T15:41:14;15.91;50.87
74792;SHT30;63319;46.046;17.802;2024-03-06T15:44:17;15.67;51.72
74792;SHT30;63319;46.046;17.802;2024-03-06T15:47:21;15.53;51.56
74792;SHT30;63319;46.046;17.802;2024-03-06T15:50:24;15.44;51.48
74792;SHT30;63319;46.046;17.802;2024-03-06T15:53:27;15.36;51.70
74792;SHT30;63319;46.046;17.802;2024-03-06T15:56:34;15.40;51.33
74792;SHT30;63319;46.046;17.802;2024-03-06T15:59:37;14.90;52.67
74792;SHT30;63319;46.046;17.802;2024-03-06T16:02:40;14.69;53.44
74792;SHT30;63319;46.046;17.802;2024-03-06T16:05:44;14.46;54.48
74792;SHT30;63319;46.046;17.802;2024-03-06T16:08:50;14.38;54.98
74792;SHT30;63319;46.046;17.802;2024-03-06T16:11:53;14.37;54.67
74792;SHT30;63319;46.046;17.802;2024-03-06T16:14:56;14.37;54.95
74792;SHT30;63319;46.046;17.802;2024-03-06T16:17:59;14.21;55.29
74792;SHT30;63319;46.046;17.802;2024-03-06T16:21:02;14.14;55.93
74792;SHT30;63319;46.046;17.802;2024-03-06T16:24:06;13.85;56.97
74792;SHT30;63319;46.046;17.802;2024-03-06T16:27:12;13.62;58.51
74792;SHT30;63319;46.046;17.802;2024-03-06T16:30:15;13.49;58.98
74792;SHT30;63319;46.046;17.802;2024-03-06T16:33:18;13.58;58.70
74792;SHT30;63319;46.046;17.802;2024-03-06T16:36:21;13.39;59.48
74792;SHT30;63319;46.046;17.802;2024-03-06T16:39:24;13.17;60.39
74792;SHT30;63319;46.046;17.802;2024-03-06T16:42:27;13.14;60.23
74792;SHT30;63319;46.046;17.802;2024-03-06T16:45:30;13.10;60.63
74792;SHT30;63319;46.046;17.802;2024-03-06T16:48:33;13.21;58.97
74792;SHT30;63319;46.046;17.802;2024-03-06T16:51:37;13.12;59.50
74792;SHT30;63319;46.046;17.802;2024-03-06T16:54:40;13.15;59.53
74792;SHT30;63319;46.046;17.802;2024-03-06T16:57:43;13.15;60.06
74792;SHT30;63319;46.046;17.802;2024-03-06T17:00:47;13.15;58.77
74792;SHT30;63319;46.046;17.802;2024-03-06T17:03:50;13.11;58.77
74792;SHT30;63319;46.046;17.802;2024-03-06T17:06:53;13.08;59.16
74792;SHT30;63319;46.046;17.802;2024-03-06T17:09:56;12.96;59.22
74792;SHT30;63319;46.046;17.802;2024-03-06T17:12:59;12.87;59.45
74792;SHT30;63319;46.046;17.802;2024-03-06T17:16:07;12.83;59.35
74792;SHT30;63319;46.046;17.802;2024-03-06T17:19:11;12.52;60.80
74792;SHT30;63319;46.046;17.802;2024-03-06T17:22:14;12.64;60.20
74792;SHT30;63319;46.046;17.802;2024-03-06T17:25:17;12.52;60.10
74792;SHT30;63319;46.046;17.802;2024-03-06T17:28:22;12.53;60.02
74792;SHT30;63319;46.046;17.802;2024-03-06T17:31:27;12.42;60.54
74792;SHT30;63319;46.046;17.802;2024-03-06T17:34:30;12.17;61.40
74792;SHT30;63319;46.046;17.802;2024-03-06T17:37:35;12.10;61.99
74792;SHT30;63319;46.046;17.802;2024-03-06T17:40:38;12.05;62.24
74792;SHT30;63319;46.046;17.802;2024-03-06T17:43:41;12.08;62.43
74792;SHT30;63319;46.046;17.802;2024-03-06T17:46:44;11.97;63.08
74792;SHT30;63319;46.046;17.802;2024-03-06T17:49:47;11.87;63.06
74792;SHT30;63319;46.046;17.802;2024-03-06T17:52:50;11.78;63.41
74792;SHT30;63319;46.046;17.802;2024-03-06T17:55:53;11.64;63.72
74792;SHT30;63319;46.046;17.802;2024-03-06T17:58:55;11.71;63.44
74792;SHT30;63319;46.046;17.802;2024-03-06T18:01:58;11.78;64.14
74792;SHT30;63319;46.046;17.802;2024-03-06T18:05:02;11.98;63.72
74792;SHT30;63319;46.046;17.802;2024-03-06T18:08:06;12.11;63.05
74792;SHT30;63319;46.046;17.802;2024-03-06T18:11:10;12.11;63.65
74792;SHT30;63319;46.046;17.802;2024-03-06T18:14:14;12.01;62.62
74792;SHT30;63319;46.046;17.802;2024-03-06T18:17:17;12.04;63.42
74792;SHT30;63319;46.046;17.802;2024-03-06T18:20:22;11.83;62.70
74792;SHT30;63319;46.046;17.802;2024-03-06T18:23:27;11.92;63.39
74792;SHT30;63319;46.046;17.802;2024-03-06T18:26:30;11.75;64.65
74792;SHT30;63319;46.046;17.802;2024-03-06T18:29:33;11.75;64.59
74792;SHT30;63319;46.046;17.802;2024-03-06T18:32:36;11.59;64.33
74792;SHT30;63319;46.046;17.802;2024-03-06T18:35:39;11.29;65.60
74792;SHT30;63319;46.046;17.802;2024-03-06T18:38:42;11.63;64.70
74792;SHT30;63319;46.046;17.802;2024-03-06T18:41:47;11.43;65.41
74792;SHT30;63319;46.046;17.802;2024-03-06T18:44:50;11.64;64.25
74792;SHT30;63319;46.046;17.802;2024-03-06T18:47:54;11.62;65.23
74792;SHT30;63319;46.046;17.802;2024-03-06T18:50:57;11.46;65.36
74792;SHT30;63319;46.046;17.802;2024-03-06T18:54:01;11.50;65.45
74792;SHT30;63319;46.046;17.802;2024-03-06T18:57:04;11.54;64.39
74792;SHT30;63319;46.046;17.802;2024-03-06T19:00:07;11.52;65.69
74792;SHT30;63319;46.046;17.802;2024-03-06T19:03:11;11.50;65.13
74792;SHT30;63319;46.046;17.802;2024-03-06T19:06:16;11.35;65.80
74792;SHT30;63319;46.046;17.802;2024-03-06T19:09:19;11.16;66.01
74792;SHT30;63319;46.046;17.802;2024-03-06T19:12:22;11.08;66.33
74792;SHT30;63319;46.046;17.802;2024-03-06T19:15:26;11.01;66.78
74792;SHT30;63319;46.046;17.802;2024-03-06T19:18:29;11.20;65.78